sensor_id;sensor_type;location;lat;lon;timestamp;P1;durP1;ratioP1;P2;durP2;ratioP2
58926;SDS011;44712;52.530;9.760;2022-08-02T00:00:23;9.85;;;5.10;;
58926;SDS011;44712;52.530;9.760;2022-08-02T00:02:49;13.23;;;5.57;;
58926;SDS011;44712;52.530;9.760;2022-08-02T00:05:16;12.63;;;5.72;;
58926;SDS011;44712;52.530;9.760;2022-08-02T00:07:43;10.35;;;5.25;;
58926;SDS011;44712;52.530;9.760;2022-08-02T00:10:10;8.65;;;5.10;;
58926;SDS011;44712;52.530;9.760;2022-08-02T00:12:38;11.20;;;4.95;;
58926;SDS011;44712;52.530;9.760;2022-08-02T00:15:06;9.95;;;4.40;;
58926;SDS011;44712;52.530;9.760;2022-08-02T00:17:33;8.07;;;5.20;;
58926;SDS011;44712;52.530;9.760;2022-08-02T00:20:00;11.52;;;5.38;;
58926;SDS011;44712;52.530;9.760;2022-08-02T00:22:28;12.25;;;5.03;;
58926;SDS011;44712;52.530;9.760;2022-08-02T00:24:55;9.25;;;5.00;;
58926;SDS011;44712;52.530;9.760;2022-08-02T00:27:21;11.02;;;5.57;;
58926;SDS011;44712;52.530;9.760;2022-08-02T00:29:48;11.15;;;5.60;;
58926;SDS011;44712;52.530;9.760;2022-08-02T00:32:20;10.02;;;5.90;;
58926;SDS011;44712;52.530;9.760;2022-08-02T00:34:48;12.63;;;5.97;;
58926;SDS011;44712;52.530;9.760;2022-08-02T00:37:18;11.68;;;5.88;;
58926;SDS011;44712;52.530;9.760;2022-08-02T00:39:45;9.52;;;5.32;;
58926;SDS011;44712;52.530;9.760;2022-08-02T00:42:15;9.43;;;5.00;;
58926;SDS011;44712;52.530;9.760;2022-08-02T00:44:41;10.48;;;5.55;;
58926;SDS011;44712;52.530;9.760;2022-08-02T00:47:08;9.60;;;5.90;;
58926;SDS011;44712;52.530;9.760;2022-08-02T00:49:35;9.80;;;5.55;;
58926;SDS011;44712;52.530;9.760;2022-08-02T00:52:03;11.38;;;5.40;;
58926;SDS011;44712;52.530;9.760;2022-08-02T00:54:30;12.60;;;5.85;;
58926;SDS011;44712;52.530;9.760;2022-08-02T00:56:57;12.07;;;6.07;;
58926;SDS011;44712;52.530;9.760;2022-08-02T00:59:23;9.77;;;5.60;;
58926;SDS011;44712;52.530;9.760;2022-08-02T01:01:50;9.82;;;5.82;;
58926;SDS011;44712;52.530;9.760;2022-08-02T01:04:23;8.48;;;5.68;;
58926;SDS011;44712;52.530;9.760;2022-08-02T01:06:58;10.75;;;6.45;;
58926;SDS011;44712;52.530;9.760;2022-08-02T01:09:26;11.95;;;5.95;;
58926;SDS011;44712;52.530;9.760;2022-08-02T01:11:53;9.30;;;5.40;;
58926;SDS011;44712;52.530;9.760;2022-08-02T01:14:20;12.27;;;6.03;;
58926;SDS011;44712;52.530;9.760;2022-08-02T01:16:51;8.85;;;6.32;;
58926;SDS011;44712;52.530;9.760;2022-08-02T01:22:30;12.02;;;6.30;;
58926;SDS011;44712;52.530;9.760;2022-08-02T01:28:27;12.07;;;6.18;;
58926;SDS011;44712;52.530;9.760;2022-08-02T01:31:06;10.48;;;6.60;;
58926;SDS011;44712;52.530;9.760;2022-08-02T01:33:40;12.20;;;6.32;;
58926;SDS011;44712;52.530;9.760;2022-08-02T01:36:11;13.10;;;6.80;;
58926;SDS011;44712;52.530;9.760;2022-08-02T01:38:42;8.55;;;6.75;;
58926;SDS011;44712;52.530;9.760;2022-08-02T01:41:15;10.40;;;5.90;;
58926;SDS011;44712;52.530;9.760;2022-08-02T01:43:47;12.43;;;5.97;;
58926;SDS011;44712;52.530;9.760;2022-08-02T01:46:16;9.38;;;5.88;;
58926;SDS011;44712;52.530;9.760;2022-08-02T01:48:46;11.80;;;7.30;;
58926;SDS011;44712;52.530;9.760;2022-08-02T01:51:15;11.05;;;6.53;;
58926;SDS011;44712;52.530;9.760;2022-08-02T01:54:06;11.95;;;5.40;;
58926;SDS011;44712;52.530;9.760;2022-08-02T01:56:36;11.32;;;5.97;;
58926;SDS011;44712;52.530;9.760;2022-08-02T01:59:04;11.95;;;6.53;;
58926;SDS011;44712;52.530;9.760;2022-08-02T02:01:34;10.98;;;6.10;;
58926;SDS011;44712;52.530;9.760;2022-08-02T02:04:05;9.23;;;5.50;;
58926;SDS011;44712;52.530;9.760;2022-08-02T02:06:34;11.35;;;6.28;;
58926;SDS011;44712;52.530;9.760;2022-08-02T02:09:02;16.52;;;5.80;;
58926;SDS011;44712;52.530;9.760;2022-08-02T02:11:30;7.85;;;5.57;;
58926;SDS011;44712;52.530;9.760;2022-08-02T02:14:18;12.80;;;6.10;;
58926;SDS011;44712;52.530;9.760;2022-08-02T02:16:47;9.07;;;5.97;;
58926;SDS011;44712;52.530;9.760;2022-08-02T02:19:19;11.20;;;6.28;;
58926;SDS011;44712;52.530;9.760;2022-08-02T02:21:48;9.98;;;6.93;;
58926;SDS011;44712;52.530;9.760;2022-08-02T02:24:14;10.73;;;6.13;;
58926;SDS011;44712;52.530;9.760;2022-08-02T02:26:41;10.20;;;5.75;;
58926;SDS011;44712;52.530;9.760;2022-08-02T02:29:19;10.85;;;6.07;;
58926;SDS011;44712;52.530;9.760;2022-08-02T02:31:47;9.27;;;5.43;;
58926;SDS011;44712;52.530;9.760;2022-08-02T02:34:31;12.55;;;6.97;;
58926;SDS011;44712;52.530;9.760;2022-08-02T02:37:02;10.52;;;6.65;;
58926;SDS011;44712;52.530;9.760;2022-08-02T02:39:31;8.15;;;5.47;;
58926;SDS011;44712;52.530;9.760;2022-08-02T02:42:01;12.05;;;5.82;;
58926;SDS011;44712;52.530;9.760;2022-08-02T02:44:29;11.68;;;6.00;;
58926;SDS011;44712;52.530;9.760;2022-08-02T02:46:58;11.23;;;6.40;;
58926;SDS011;44712;52.530;9.760;2022-08-02T02:49:27;11.80;;;6.20;;
58926;SDS011;44712;52.530;9.760;2022-08-02T02:51:58;7.82;;;5.25;;
58926;SDS011;44712;52.530;9.760;2022-08-02T02:54:25;9.68;;;5.65;;
58926;SDS011;44712;52.530;9.760;2022-08-02T02:57:00;9.02;;;5.82;;
58926;SDS011;44712;52.530;9.760;2022-08-02T02:59:29;12.70;;;6.30;;
58926;SDS011;44712;52.530;9.760;2022-08-02T03:01:57;8.32;;;5.75;;
58926;SDS011;44712;52.530;9.760;2022-08-02T03:04:26;8.95;;;5.30;;
58926;SDS011;44712;52.530;9.760;2022-08-02T03:07:13;10.10;;;5.85;;
58926;SDS011;44712;52.530;9.760;2022-08-02T03:09:40;11.57;;;5.60;;
58926;SDS011;44712;52.530;9.760;2022-08-02T03:12:07;10.25;;;6.47;;
58926;SDS011;44712;52.530;9.760;2022-08-02T03:14:39;12.20;;;6.80;;
58926;SDS011;44712;52.530;9.760;2022-08-02T03:17:08;10.15;;;6.43;;
58926;SDS011;44712;52.530;9.760;2022-08-02T03:19:34;11.55;;;5.95;;
58926;SDS011;44712;52.530;9.760;2022-08-02T03:22:02;14.43;;;7.05;;
58926;SDS011;44712;52.530;9.760;2022-08-02T03:24:29;11.10;;;6.05;;
58926;SDS011;44712;52.530;9.760;2022-08-02T03:26:56;11.32;;;5.80;;
58926;SDS011;44712;52.530;9.760;2022-08-02T03:29:22;10.82;;;5.95;;
58926;SDS011;44712;52.530;9.760;2022-08-02T03:31:49;14.35;;;6.93;;
58926;SDS011;44712;52.530;9.760;2022-08-02T03:34:16;13.93;;;7.25;;
58926;SDS011;44712;52.530;9.760;2022-08-02T03:36:42;11.90;;;6.32;;
58926;SDS011;44712;52.530;9.760;2022-08-02T03:39:14;8.25;;;5.65;;
58926;SDS011;44712;52.530;9.760;2022-08-02T03:41:41;10.50;;;5.80;;
58926;SDS011;44712;52.530;9.760;2022-08-02T03:44:09;12.50;;;6.28;;
58926;SDS011;44712;52.530;9.760;2022-08-02T03:46:37;14.93;;;6.40;;
58926;SDS011;44712;52.530;9.760;2022-08-02T03:49:06;11.50;;;5.97;;
58926;SDS011;44712;52.530;9.760;2022-08-02T03:51:34;10.65;;;6.93;;
58926;SDS011;44712;52.530;9.760;2022-08-02T03:54:01;11.35;;;6.15;;
58926;SDS011;44712;52.530;9.760;2022-08-02T03:56:29;10.23;;;6.15;;
58926;SDS011;44712;52.530;9.760;2022-08-02T03:59:09;9.88;;;6.38;;
58926;SDS011;44712;52.530;9.760;2022-08-02T04:01:37;16.25;;;6.22;;
58926;SDS011;44712;52.530;9.760;2022-08-02T04:04:05;10.10;;;5.82;;
58926;SDS011;44712;52.530;9.760;2022-08-02T04:06:32;11.60;;;5.85;;
58926;SDS011;44712;52.530;9.760;2022-08-02T04:08:59;9.35;;;6.80;;
58926;SDS011;44712;52.530;9.760;2022-08-02T04:11:26;10.80;;;6.45;;
58926;SDS011;44712;52.530;9.760;2022-08-02T04:14:14;9.60;;;6.28;;
58926;SDS011;44712;52.530;9.760;2022-08-02T04:19:20;11.77;;;6.80;;
58926;SDS011;44712;52.530;9.760;2022-08-02T04:22:46;11.43;;;6.80;;
58926;SDS011;44712;52.530;9.760;2022-08-02T04:25:09;10.77;;;6.47;;
58926;SDS011;44712;52.530;9.760;2022-08-02T04:27:42;13.55;;;6.72;;
58926;SDS011;44712;52.530;9.760;2022-08-02T04:30:16;11.18;;;6.57;;
58926;SDS011;44712;52.530;9.760;2022-08-02T04:32:44;9.35;;;6.13;;
58926;SDS011;44712;52.530;9.760;2022-08-02T04:35:11;11.77;;;6.75;;
58926;SDS011;44712;52.530;9.760;2022-08-02T04:37:46;11.77;;;6.55;;
58926;SDS011;44712;52.530;9.760;2022-08-02T04:40:34;12.95;;;6.90;;
58926;SDS011;44712;52.530;9.760;2022-08-02T04:43:01;10.65;;;6.63;;
58926;SDS011;44712;52.530;9.760;2022-08-02T04:45:28;16.17;;;7.53;;
58926;SDS011;44712;52.530;9.760;2022-08-02T04:47:55;11.40;;;6.63;;
58926;SDS011;44712;52.530;9.760;2022-08-02T04:50:30;10.23;;;6.38;;
58926;SDS011;44712;52.530;9.760;2022-08-02T04:52:57;9.43;;;6.47;;
58926;SDS011;44712;52.530;9.760;2022-08-02T04:55:24;10.00;;;6.55;;
58926;SDS011;44712;52.530;9.760;2022-08-02T04:57:54;11.75;;;6.50;;
58926;SDS011;44712;52.530;9.760;2022-08-02T05:00:23;8.80;;;6.05;;
58926;SDS011;44712;52.530;9.760;2022-08-02T05:02:51;9.10;;;6.53;;
58926;SDS011;44712;52.530;9.760;2022-08-02T05:05:19;12.88;;;6.35;;
58926;SDS011;44712;52.530;9.760;2022-08-02T05:07:46;11.07;;;5.95;;
58926;SDS011;44712;52.530;9.760;2022-08-02T05:10:12;10.00;;;6.10;;
58926;SDS011;44712;52.530;9.760;2022-08-02T05:12:40;11.90;;;7.18;;
58926;SDS011;44712;52.530;9.760;2022-08-02T05:15:07;16.05;;;7.25;;
58926;SDS011;44712;52.530;9.760;2022-08-02T05:17:38;10.52;;;6.80;;
58926;SDS011;44712;52.530;9.760;2022-08-02T05:20:13;14.23;;;7.30;;
58926;SDS011;44712;52.530;9.760;2022-08-02T05:22:41;17.60;;;7.82;;
58926;SDS011;44712;52.530;9.760;2022-08-02T05:25:08;15.43;;;7.05;;
58926;SDS011;44712;52.530;9.760;2022-08-02T05:27:35;12.95;;;6.32;;
58926;SDS011;44712;52.530;9.760;2022-08-02T05:30:03;18.75;;;6.90;;
58926;SDS011;44712;52.530;9.760;2022-08-02T05:32:33;14.80;;;7.63;;
58926;SDS011;44712;52.530;9.760;2022-08-02T05:35:00;16.25;;;7.13;;
58926;SDS011;44712;52.530;9.760;2022-08-02T05:37:27;13.38;;;7.40;;
58926;SDS011;44712;52.530;9.760;2022-08-02T05:39:57;16.90;;;6.47;;
58926;SDS011;44712;52.530;9.760;2022-08-02T05:42:26;13.80;;;7.30;;
58926;SDS011;44712;52.530;9.760;2022-08-02T05:44:53;15.18;;;6.75;;
58926;SDS011;44712;52.530;9.760;2022-08-02T05:47:20;12.10;;;6.85;;
58926;SDS011;44712;52.530;9.760;2022-08-02T05:49:49;10.27;;;6.05;;
58926;SDS011;44712;52.530;9.760;2022-08-02T05:52:16;12.25;;;7.10;;
58926;SDS011;44712;52.530;9.760;2022-08-02T05:54:56;14.55;;;7.47;;
58926;SDS011;44712;52.530;9.760;2022-08-02T05:57:51;12.70;;;6.63;;
58926;SDS011;44712;52.530;9.760;2022-08-02T06:00:26;17.05;;;6.03;;
58926;SDS011;44712;52.530;9.760;2022-08-02T06:03:03;13.85;;;6.22;;
58926;SDS011;44712;52.530;9.760;2022-08-02T06:05:38;12.60;;;6.18;;
58926;SDS011;44712;52.530;9.760;2022-08-02T06:08:09;14.82;;;6.68;;
58926;SDS011;44712;52.530;9.760;2022-08-02T06:10:38;12.90;;;5.65;;
58926;SDS011;44712;52.530;9.760;2022-08-02T06:13:07;12.43;;;6.43;;
58926;SDS011;44712;52.530;9.760;2022-08-02T06:18:19;14.82;;;5.15;;
58926;SDS011;44712;52.530;9.760;2022-08-02T06:20:57;8.68;;;5.60;;
58926;SDS011;44712;52.530;9.760;2022-08-02T06:23:47;10.00;;;5.47;;
58926;SDS011;44712;52.530;9.760;2022-08-02T06:26:24;11.48;;;5.10;;
58926;SDS011;44712;52.530;9.760;2022-08-02T06:28:56;15.35;;;5.93;;
58926;SDS011;44712;52.530;9.760;2022-08-02T06:31:23;13.10;;;5.95;;
58926;SDS011;44712;52.530;9.760;2022-08-02T06:33:50;10.20;;;4.80;;
58926;SDS011;44712;52.530;9.760;2022-08-02T06:36:24;13.77;;;5.57;;
58926;SDS011;44712;52.530;9.760;2022-08-02T06:39:18;13.50;;;5.03;;
58926;SDS011;44712;52.530;9.760;2022-08-02T06:44:23;8.25;;;4.93;;
58926;SDS011;44712;52.530;9.760;2022-08-02T06:47:09;7.93;;;4.88;;
58926;SDS011;44712;52.530;9.760;2022-08-02T06:49:39;11.00;;;4.90;;
58926;SDS011;44712;52.530;9.760;2022-08-02T06:52:27;9.05;;;4.93;;
58926;SDS011;44712;52.530;9.760;2022-08-02T06:54:57;9.60;;;4.80;;
58926;SDS011;44712;52.530;9.760;2022-08-02T06:57:29;7.43;;;4.28;;
58926;SDS011;44712;52.530;9.760;2022-08-02T06:59:56;12.98;;;4.63;;
58926;SDS011;44712;52.530;9.760;2022-08-02T07:02:28;10.07;;;4.53;;
58926;SDS011;44712;52.530;9.760;2022-08-02T07:04:55;14.02;;;4.38;;
58926;SDS011;44712;52.530;9.760;2022-08-02T07:07:22;9.13;;;4.18;;
58926;SDS011;44712;52.530;9.760;2022-08-02T07:09:49;8.02;;;3.72;;
58926;SDS011;44712;52.530;9.760;2022-08-02T07:12:27;9.90;;;4.38;;
58926;SDS011;44712;52.530;9.760;2022-08-02T07:14:56;8.10;;;4.32;;
58926;SDS011;44712;52.530;9.760;2022-08-02T07:17:23;8.82;;;4.63;;
58926;SDS011;44712;52.530;9.760;2022-08-02T07:19:50;11.23;;;4.18;;
58926;SDS011;44712;52.530;9.760;2022-08-02T07:22:17;9.88;;;4.55;;
58926;SDS011;44712;52.530;9.760;2022-08-02T07:24:45;10.30;;;4.55;;
58926;SDS011;44712;52.530;9.760;2022-08-02T07:27:12;12.60;;;5.03;;
58926;SDS011;44712;52.530;9.760;2022-08-02T07:29:39;11.05;;;5.20;;
58926;SDS011;44712;52.530;9.760;2022-08-02T07:32:12;9.23;;;3.90;;
58926;SDS011;44712;52.530;9.760;2022-08-02T07:34:41;10.35;;;4.15;;
58926;SDS011;44712;52.530;9.760;2022-08-02T07:37:16;8.82;;;4.40;;
58926;SDS011;44712;52.530;9.760;2022-08-02T07:40:03;10.75;;;4.97;;
58926;SDS011;44712;52.530;9.760;2022-08-02T07:42:39;12.48;;;4.75;;
58926;SDS011;44712;52.530;9.760;2022-08-02T07:45:06;10.00;;;5.05;;
58926;SDS011;44712;52.530;9.760;2022-08-02T07:47:36;12.57;;;4.35;;
58926;SDS011;44712;52.530;9.760;2022-08-02T07:50:07;6.00;;;3.90;;
58926;SDS011;44712;52.530;9.760;2022-08-02T07:52:35;8.88;;;4.32;;
58926;SDS011;44712;52.530;9.760;2022-08-02T07:55:02;9.50;;;4.78;;
58926;SDS011;44712;52.530;9.760;2022-08-02T07:57:32;12.18;;;5.20;;
58926;SDS011;44712;52.530;9.760;2022-08-02T07:59:59;11.63;;;5.38;;
58926;SDS011;44712;52.530;9.760;2022-08-02T08:02:25;10.98;;;5.10;;
58926;SDS011;44712;52.530;9.760;2022-08-02T08:04:52;8.80;;;5.03;;
58926;SDS011;44712;52.530;9.760;2022-08-02T08:07:19;13.25;;;4.97;;
58926;SDS011;44712;52.530;9.760;2022-08-02T08:09:46;12.25;;;5.30;;
58926;SDS011;44712;52.530;9.760;2022-08-02T08:12:18;8.57;;;4.82;;
58926;SDS011;44712;52.530;9.760;2022-08-02T08:14:45;11.55;;;5.97;;
58926;SDS011;44712;52.530;9.760;2022-08-02T08:17:12;10.80;;;5.55;;
58926;SDS011;44712;52.530;9.760;2022-08-02T08:19:38;11.45;;;5.50;;
58926;SDS011;44712;52.530;9.760;2022-08-02T08:22:18;9.13;;;4.78;;
58926;SDS011;44712;52.530;9.760;2022-08-02T08:24:45;10.80;;;5.20;;
58926;SDS011;44712;52.530;9.760;2022-08-02T08:27:13;8.90;;;4.88;;
58926;SDS011;44712;52.530;9.760;2022-08-02T08:29:41;7.22;;;5.10;;
58926;SDS011;44712;52.530;9.760;2022-08-02T08:32:08;7.20;;;4.57;;
58926;SDS011;44712;52.530;9.760;2022-08-02T08:34:42;12.77;;;5.55;;
58926;SDS011;44712;52.530;9.760;2022-08-02T08:37:09;9.00;;;4.70;;
58926;SDS011;44712;52.530;9.760;2022-08-02T08:39:44;11.60;;;4.53;;
58926;SDS011;44712;52.530;9.760;2022-08-02T08:42:25;8.30;;;4.47;;
58926;SDS011;44712;52.530;9.760;2022-08-02T08:44:55;10.30;;;4.38;;
58926;SDS011;44712;52.530;9.760;2022-08-02T08:47:27;9.38;;;4.40;;
58926;SDS011;44712;52.530;9.760;2022-08-02T08:50:04;8.68;;;4.68;;
58926;SDS011;44712;52.530;9.760;2022-08-02T08:52:42;8.98;;;4.50;;
58926;SDS011;44712;52.530;9.760;2022-08-02T08:55:14;10.75;;;4.00;;
58926;SDS011;44712;52.530;9.760;2022-08-02T08:57:42;10.05;;;4.70;;
58926;SDS011;44712;52.530;9.760;2022-08-02T09:00:09;8.35;;;4.05;;
58926;SDS011;44712;52.530;9.760;2022-08-02T09:02:42;8.17;;;3.83;;
58926;SDS011;44712;52.530;9.760;2022-08-02T09:05:10;5.78;;;3.70;;
58926;SDS011;44712;52.530;9.760;2022-08-02T09:07:38;6.95;;;3.58;;
58926;SDS011;44712;52.530;9.760;2022-08-02T09:13:14;6.20;;;3.50;;
58926;SDS011;44712;52.530;9.760;2022-08-02T09:16:05;7.43;;;3.42;;
58926;SDS011;44712;52.530;9.760;2022-08-02T09:18:40;6.63;;;3.55;;
58926;SDS011;44712;52.530;9.760;2022-08-02T09:21:10;5.25;;;3.45;;
58926;SDS011;44712;52.530;9.760;2022-08-02T09:23:41;8.13;;;4.35;;
58926;SDS011;44712;52.530;9.760;2022-08-02T09:26:16;7.55;;;3.95;;
58926;SDS011;44712;52.530;9.760;2022-08-02T09:28:46;4.82;;;3.65;;
58926;SDS011;44712;52.530;9.760;2022-08-02T09:31:21;6.43;;;3.53;;
58926;SDS011;44712;52.530;9.760;2022-08-02T09:33:50;8.23;;;3.42;;
58926;SDS011;44712;52.530;9.760;2022-08-02T09:36:17;9.45;;;4.65;;
58926;SDS011;44712;52.530;9.760;2022-08-02T09:38:52;6.82;;;3.85;;
58926;SDS011;44712;52.530;9.760;2022-08-02T09:41:24;6.13;;;3.85;;
58926;SDS011;44712;52.530;9.760;2022-08-02T09:43:53;6.22;;;3.30;;
58926;SDS011;44712;52.530;9.760;2022-08-02T09:46:38;7.22;;;4.22;;
58926;SDS011;44712;52.530;9.760;2022-08-02T09:49:14;5.28;;;3.60;;
58926;SDS011;44712;52.530;9.760;2022-08-02T09:54:19;7.22;;;3.88;;
58926;SDS011;44712;52.530;9.760;2022-08-02T09:57:00;6.22;;;3.95;;
58926;SDS011;44712;52.530;9.760;2022-08-02T09:59:27;6.40;;;3.70;;
58926;SDS011;44712;52.530;9.760;2022-08-02T10:01:56;5.40;;;3.15;;
58926;SDS011;44712;52.530;9.760;2022-08-02T10:04:30;5.80;;;3.17;;
58926;SDS011;44712;52.530;9.760;2022-08-02T10:07:17;8.18;;;3.40;;
58926;SDS011;44712;52.530;9.760;2022-08-02T10:09:47;4.82;;;2.83;;
58926;SDS011;44712;52.530;9.760;2022-08-02T10:12:14;4.30;;;2.58;;
58926;SDS011;44712;52.530;9.760;2022-08-02T10:14:41;4.05;;;2.65;;
58926;SDS011;44712;52.530;9.760;2022-08-02T10:17:09;3.92;;;2.78;;
58926;SDS011;44712;52.530;9.760;2022-08-02T10:19:36;6.63;;;2.83;;
58926;SDS011;44712;52.530;9.760;2022-08-02T10:22:22;6.65;;;2.90;;
58926;SDS011;44712;52.530;9.760;2022-08-02T10:24:50;4.03;;;2.88;;
58926;SDS011;44712;52.530;9.760;2022-08-02T10:27:18;5.80;;;3.10;;
58926;SDS011;44712;52.530;9.760;2022-08-02T10:29:47;4.60;;;3.47;;
58926;SDS011;44712;52.530;9.760;2022-08-02T10:32:26;4.60;;;2.85;;
58926;SDS011;44712;52.530;9.760;2022-08-02T10:35:07;3.55;;;3.08;;
58926;SDS011;44712;52.530;9.760;2022-08-02T10:37:55;3.92;;;2.65;;
58926;SDS011;44712;52.530;9.760;2022-08-02T10:54:35;3.67;;;2.65;;
58926;SDS011;44712;52.530;9.760;2022-08-02T10:57:16;7.15;;;2.63;;
58926;SDS011;44712;52.530;9.760;2022-08-02T10:59:48;3.15;;;2.80;;
58926;SDS011;44712;52.530;9.760;2022-08-02T11:02:36;3.85;;;2.88;;
58926;SDS011;44712;52.530;9.760;2022-08-02T11:05:06;3.40;;;2.22;;
58926;SDS011;44712;52.530;9.760;2022-08-02T11:07:35;2.80;;;2.50;;
58926;SDS011;44712;52.530;9.760;2022-08-02T11:15:25;5.93;;;3.17;;
58926;SDS011;44712;52.530;9.760;2022-08-02T11:17:53;4.40;;;2.70;;
58926;SDS011;44712;52.530;9.760;2022-08-02T11:20:22;4.07;;;2.70;;
58926;SDS011;44712;52.530;9.760;2022-08-02T11:22:50;3.28;;;2.63;;
58926;SDS011;44712;52.530;9.760;2022-08-02T11:30:15;3.28;;;2.95;;
58926;SDS011;44712;52.530;9.760;2022-08-02T11:32:43;5.30;;;2.70;;
58926;SDS011;44712;52.530;9.760;2022-08-02T11:35:10;3.50;;;2.80;;
58926;SDS011;44712;52.530;9.760;2022-08-02T11:37:38;4.05;;;2.70;;
58926;SDS011;44712;52.530;9.760;2022-08-02T11:40:08;5.22;;;2.60;;
58926;SDS011;44712;52.530;9.760;2022-08-02T11:42:45;2.67;;;2.47;;
58926;SDS011;44712;52.530;9.760;2022-08-02T11:45:16;5.22;;;3.00;;
58926;SDS011;44712;52.530;9.760;2022-08-02T11:47:51;3.90;;;2.22;;
58926;SDS011;44712;52.530;9.760;2022-08-02T11:50:23;3.53;;;2.10;;
58926;SDS011;44712;52.530;9.760;2022-08-02T11:52:55;3.60;;;2.60;;
58926;SDS011;44712;52.530;9.760;2022-08-02T11:55:27;3.25;;;2.20;;
58926;SDS011;44712;52.530;9.760;2022-08-02T11:57:58;4.75;;;2.75;;
58926;SDS011;44712;52.530;9.760;2022-08-02T12:00:30;4.25;;;2.20;;
58926;SDS011;44712;52.530;9.760;2022-08-02T12:02:57;3.03;;;2.50;;
58926;SDS011;44712;52.530;9.760;2022-08-02T12:05:24;3.72;;;2.30;;
58926;SDS011;44712;52.530;9.760;2022-08-02T12:08:12;5.28;;;2.58;;
58926;SDS011;44712;52.530;9.760;2022-08-02T12:10:45;3.20;;;2.22;;
58926;SDS011;44712;52.530;9.760;2022-08-02T12:13:14;3.03;;;2.30;;
58926;SDS011;44712;52.530;9.760;2022-08-02T12:15:41;4.05;;;2.25;;
58926;SDS011;44712;52.530;9.760;2022-08-02T12:18:12;11.48;;;2.95;;
58926;SDS011;44712;52.530;9.760;2022-08-02T12:21:24;2.70;;;1.98;;
58926;SDS011;44712;52.530;9.760;2022-08-02T12:23:52;3.97;;;2.20;;
58926;SDS011;44712;52.530;9.760;2022-08-02T12:26:26;4.13;;;2.60;;
58926;SDS011;44712;52.530;9.760;2022-08-02T12:28:55;6.72;;;2.10;;
58926;SDS011;44712;52.530;9.760;2022-08-02T12:31:37;4.80;;;2.22;;
58926;SDS011;44712;52.530;9.760;2022-08-02T12:34:24;2.55;;;2.30;;
58926;SDS011;44712;52.530;9.760;2022-08-02T12:37:00;3.03;;;2.63;;
58926;SDS011;44712;52.530;9.760;2022-08-02T12:39:37;3.75;;;2.50;;
58926;SDS011;44712;52.530;9.760;2022-08-02T12:42:09;3.90;;;2.58;;
58926;SDS011;44712;52.530;9.760;2022-08-02T12:44:38;4.65;;;2.30;;
58926;SDS011;44712;52.530;9.760;2022-08-02T12:47:16;4.57;;;2.42;;
58926;SDS011;44712;52.530;9.760;2022-08-02T12:50:09;2.90;;;2.45;;
58926;SDS011;44712;52.530;9.760;2022-08-02T12:53:01;3.75;;;2.50;;
58926;SDS011;44712;52.530;9.760;2022-08-02T12:55:32;5.32;;;2.78;;
58926;SDS011;44712;52.530;9.760;2022-08-02T12:58:21;4.22;;;2.80;;
58926;SDS011;44712;52.530;9.760;2022-08-02T13:01:06;4.28;;;2.50;;
58926;SDS011;44712;52.530;9.760;2022-08-02T13:03:32;3.47;;;2.70;;
58926;SDS011;44712;52.530;9.760;2022-08-02T13:06:20;4.50;;;2.67;;
58926;SDS011;44712;52.530;9.760;2022-08-02T13:09:11;3.95;;;2.72;;
58926;SDS011;44712;52.530;9.760;2022-08-02T13:11:39;4.30;;;2.70;;
58926;SDS011;44712;52.530;9.760;2022-08-02T13:14:09;3.10;;;2.35;;
58926;SDS011;44712;52.530;9.760;2022-08-02T13:16:36;3.20;;;2.50;;
58926;SDS011;44712;52.530;9.760;2022-08-02T13:19:04;5.00;;;2.75;;
58926;SDS011;44712;52.530;9.760;2022-08-02T13:21:30;5.20;;;2.90;;
58926;SDS011;44712;52.530;9.760;2022-08-02T13:24:17;3.88;;;2.40;;
58926;SDS011;44712;52.530;9.760;2022-08-02T13:27:04;2.90;;;2.60;;
58926;SDS011;44712;52.530;9.760;2022-08-02T13:29:37;4.28;;;2.67;;
58926;SDS011;44712;52.530;9.760;2022-08-02T13:32:04;4.43;;;2.88;;
58926;SDS011;44712;52.530;9.760;2022-08-02T13:34:31;3.90;;;2.90;;
58926;SDS011;44712;52.530;9.760;2022-08-02T13:36:57;6.63;;;3.15;;
58926;SDS011;44712;52.530;9.760;2022-08-02T13:39:24;2.95;;;2.60;;
58926;SDS011;44712;52.530;9.760;2022-08-02T13:41:51;4.63;;;2.75;;
58926;SDS011;44712;52.530;9.760;2022-08-02T13:44:18;5.55;;;2.88;;
58926;SDS011;44712;52.530;9.760;2022-08-02T13:46:44;4.32;;;2.80;;
58926;SDS011;44712;52.530;9.760;2022-08-02T13:49:12;4.05;;;2.90;;
58926;SDS011;44712;52.530;9.760;2022-08-02T13:51:45;4.10;;;2.70;;
58926;SDS011;44712;52.530;9.760;2022-08-02T13:54:14;4.47;;;2.95;;
58926;SDS011;44712;52.530;9.760;2022-08-02T13:56:43;5.13;;;2.90;;
58926;SDS011;44712;52.530;9.760;2022-08-02T13:59:10;3.58;;;2.80;;
58926;SDS011;44712;52.530;9.760;2022-08-02T14:01:58;3.85;;;3.28;;
58926;SDS011;44712;52.530;9.760;2022-08-02T14:04:25;3.25;;;2.95;;
58926;SDS011;44712;52.530;9.760;2022-08-02T14:06:52;3.58;;;3.28;;
58926;SDS011;44712;52.530;9.760;2022-08-02T14:09:19;3.67;;;2.97;;
58926;SDS011;44712;52.530;9.760;2022-08-02T14:11:46;4.85;;;3.20;;
58926;SDS011;44712;52.530;9.760;2022-08-02T14:14:13;4.15;;;2.78;;
58926;SDS011;44712;52.530;9.760;2022-08-02T14:16:45;3.40;;;3.10;;
58926;SDS011;44712;52.530;9.760;2022-08-02T14:19:12;3.70;;;3.40;;
58926;SDS011;44712;52.530;9.760;2022-08-02T14:21:42;5.95;;;3.30;;
58926;SDS011;44712;52.530;9.760;2022-08-02T14:24:13;5.22;;;3.60;;
58926;SDS011;44712;52.530;9.760;2022-08-02T14:26:40;4.38;;;3.03;;
58926;SDS011;44712;52.530;9.760;2022-08-02T14:29:07;4.05;;;2.85;;
58926;SDS011;44712;52.530;9.760;2022-08-02T14:31:34;6.30;;;3.40;;
58926;SDS011;44712;52.530;9.760;2022-08-02T14:34:08;4.60;;;2.95;;
58926;SDS011;44712;52.530;9.760;2022-08-02T14:36:35;3.58;;;3.10;;
58926;SDS011;44712;52.530;9.760;2022-08-02T14:39:04;5.32;;;3.45;;
58926;SDS011;44712;52.530;9.760;2022-08-02T14:41:31;3.38;;;3.08;;
58926;SDS011;44712;52.530;9.760;2022-08-02T14:44:21;3.45;;;3.15;;
58926;SDS011;44712;52.530;9.760;2022-08-02T14:46:49;3.70;;;3.35;;
58926;SDS011;44712;52.530;9.760;2022-08-02T14:49:18;4.32;;;3.45;;
58926;SDS011;44712;52.530;9.760;2022-08-02T14:51:55;6.70;;;3.33;;
58926;SDS011;44712;52.530;9.760;2022-08-02T14:54:23;5.28;;;3.20;;
58926;SDS011;44712;52.530;9.760;2022-08-02T14:56:57;4.78;;;3.20;;
58926;SDS011;44712;52.530;9.760;2022-08-02T14:59:26;3.40;;;3.10;;
58926;SDS011;44712;52.530;9.760;2022-08-02T15:01:53;3.70;;;3.40;;
58926;SDS011;44712;52.530;9.760;2022-08-02T15:04:20;3.30;;;3.00;;
58926;SDS011;44712;52.530;9.760;2022-08-02T15:06:46;4.10;;;3.30;;
58926;SDS011;44712;52.530;9.760;2022-08-02T15:09:13;4.43;;;3.50;;
58926;SDS011;44712;52.530;9.760;2022-08-02T15:11:40;4.05;;;3.45;;
58926;SDS011;44712;52.530;9.760;2022-08-02T15:14:17;3.85;;;3.20;;
58926;SDS011;44712;52.530;9.760;2022-08-02T15:16:52;3.30;;;3.00;;
58926;SDS011;44712;52.530;9.760;2022-08-02T15:19:25;7.13;;;3.47;;
58926;SDS011;44712;52.530;9.760;2022-08-02T15:22:12;3.10;;;2.72;;
58926;SDS011;44712;52.530;9.760;2022-08-02T15:24:43;3.22;;;2.88;;
58926;SDS011;44712;52.530;9.760;2022-08-02T15:27:10;3.40;;;3.10;;
58926;SDS011;44712;52.530;9.760;2022-08-02T15:29:39;6.07;;;2.85;;
58926;SDS011;44712;52.530;9.760;2022-08-02T15:32:07;3.78;;;2.55;;
58926;SDS011;44712;52.530;9.760;2022-08-02T15:34:35;3.42;;;3.13;;
58926;SDS011;44712;52.530;9.760;2022-08-02T15:37:01;3.28;;;2.92;;
58926;SDS011;44712;52.530;9.760;2022-08-02T15:39:28;5.45;;;2.80;;
58926;SDS011;44712;52.530;9.760;2022-08-02T15:41:55;3.95;;;2.65;;
58926;SDS011;44712;52.530;9.760;2022-08-02T15:44:22;3.50;;;3.17;;
58926;SDS011;44712;52.530;9.760;2022-08-02T15:46:50;4.50;;;2.80;;
58926;SDS011;44712;52.530;9.760;2022-08-02T15:49:18;4.18;;;2.83;;
58926;SDS011;44712;52.530;9.760;2022-08-02T15:51:46;3.78;;;2.95;;